SYRK1: Arkansas R at Syracuse, KS

Data processed at Thu Jan 04 2018 23:28


All information presented herein is the property of the government of the United States of America and may be revised or deleted at any time without prior notice.
Dissemination of this information without the expressed written consent of the Public Affairs Office, Tulsa District U.S. Army Corps of Engineers is strictly prohibited.
These data are gathered electronically and, as presented, have not undergone any form of quality control. These data are not guaranteed to be valid or correct.
Go to home page.
Go to station list.

Upstream stations:


Previous Day
Next Day
Current Day
    
SHEF ID:       SYRK1     ARKANSAS R AT SYRACUSE, KS
STATION TYPE:  

               PRECIP     STAGE  RIV-FLOW  BAT-LOAD
                   in        ft       cfs      volt
              Ccp-Rev   Ccp-Rev   Ccp-Rev   Ccp-Rev
(US/Central)
01/02 00:00      0.00      6.10       398     11.95
01/02 01:00      0.00      6.16       410     12.42
01/02 02:00      0.00      6.13       404     12.42
01/02 03:00      0.00      6.14       406     12.36
01/02 04:00      0.00      6.13       404     12.42
01/02 05:00      0.00      6.09       396     12.36
01/02 06:00      0.00      6.01       379      ----
01/02 07:00      0.00      5.93       364     12.36
01/02 08:00      0.00      5.86       350     12.30
01/02 09:00      0.00      5.85       348     12.30
01/02 10:00      0.00      5.84       347     13.36
01/02 11:00      0.00      5.83       345     13.42
01/02 12:00      0.00      5.80       339     13.48
01/02 13:00      0.00      5.80       339     13.53
01/02 14:00      0.00      5.79       337     13.71
01/02 15:00      0.00      5.79       337     13.53
01/02 16:00      0.00      5.77       334     13.53
01/02 17:00      0.00      5.77       334     13.42
01/02 18:00      0.00      5.77       334     13.00
01/02 19:00      0.00      5.77       334     12.89
01/02 20:00      0.00      5.77       334     12.83
01/02 21:00      0.00      5.79       337     12.71
01/02 22:00      0.00      5.81       341     12.71
01/02 23:00      0.00      5.86       350     12.13